createdAt,value
2019-04-05T00:00:54.920Z,11.37
2019-04-05T00:03:21.923Z,11.63
2019-04-05T00:05:50.150Z,12.17
2019-04-05T00:08:17.041Z,14.70
2019-04-05T00:10:43.933Z,14.77
2019-04-05T00:13:11.482Z,15.63
2019-04-05T00:15:38.639Z,17.57
2019-04-05T00:18:05.506Z,16.70
2019-04-05T00:20:34.121Z,18.00
2019-04-05T00:23:01.330Z,15.43
2019-04-05T00:25:28.232Z,17.00
2019-04-05T00:27:55.195Z,17.07
2019-04-05T00:30:22.209Z,18.67
2019-04-05T00:32:49.107Z,17.30
2019-04-05T00:35:15.986Z,20.83
2019-04-05T00:37:42.890Z,21.73
2019-04-05T00:40:10.263Z,19.20
2019-04-05T00:42:37.271Z,17.90
2019-04-05T00:45:06.322Z,18.40
2019-04-05T00:47:33.284Z,18.93
2019-04-05T00:50:00.308Z,18.73
2019-04-05T00:52:27.672Z,17.60
2019-04-05T00:54:54.861Z,17.93
2019-04-05T00:57:22.108Z,19.83
2019-04-05T00:59:49.614Z,19.90
2019-04-05T01:02:17.715Z,20.93
2019-04-05T01:04:44.993Z,18.87
2019-04-05T01:07:12.006Z,18.37
2019-04-05T01:09:39.104Z,18.97
2019-04-05T01:12:06.364Z,19.20
2019-04-05T01:14:33.492Z,20.27
2019-04-05T01:17:01.093Z,19.77
2019-04-05T01:19:31.797Z,19.23
2019-04-05T01:22:01.917Z,22.23
2019-04-05T01:24:29.084Z,21.93
2019-04-05T01:26:58.513Z,23.40
2019-04-05T01:29:26.120Z,22.47
2019-04-05T01:31:53.185Z,20.50
2019-04-05T01:34:20.183Z,22.47
2019-04-05T01:36:47.219Z,22.13
2019-04-05T01:39:14.186Z,21.83
2019-04-05T01:41:41.766Z,23.23
2019-04-05T01:44:09.211Z,20.53
2019-04-05T01:46:36.842Z,22.07
2019-04-05T01:49:03.810Z,21.23
2019-04-05T01:51:31.062Z,24.33
2019-04-05T01:53:58.389Z,21.23
2019-04-05T01:56:25.281Z,22.53
2019-04-05T01:58:52.133Z,21.93
2019-04-05T02:01:19.433Z,20.77
2019-04-05T02:03:46.677Z,20.83
2019-04-05T02:06:13.809Z,22.53
2019-04-05T02:08:41.857Z,19.60
2019-04-05T02:11:08.946Z,19.87
2019-04-05T02:13:36.025Z,20.63
2019-04-05T02:16:06.631Z,19.27
2019-04-05T02:18:33.306Z,22.07
2019-04-05T02:23:36.772Z,21.30
2019-04-05T02:26:05.185Z,21.40
2019-04-05T02:28:32.137Z,20.37
2019-04-05T02:30:59.259Z,22.10
2019-04-05T02:33:26.625Z,20.83
2019-04-05T02:35:53.623Z,20.83
2019-04-05T02:38:20.556Z,19.50
2019-04-05T02:40:48.137Z,19.70
2019-04-05T02:43:17.306Z,20.47
2019-04-05T02:45:45.875Z,19.23
2019-04-05T02:48:14.663Z,21.87
2019-04-05T02:50:45.575Z,21.40
2019-04-05T02:53:16.555Z,19.57
2019-04-05T02:55:44.147Z,19.33
2019-04-05T02:58:12.834Z,19.97
2019-04-05T03:00:40.930Z,20.17
2019-04-05T03:03:08.415Z,21.20
2019-04-05T03:05:37.039Z,21.50
2019-04-05T03:08:05.315Z,22.20
2019-04-05T03:11:03.250Z,22.07
2019-04-05T03:13:34.302Z,21.23
2019-04-05T03:16:05.201Z,22.27
2019-04-05T03:18:35.406Z,23.40
2019-04-05T03:21:06.858Z,20.80
2019-04-05T03:23:37.931Z,23.93
2019-04-05T03:26:08.641Z,23.83
2019-04-05T03:28:38.390Z,22.63
2019-04-05T03:31:05.683Z,24.20
2019-04-05T03:33:33.273Z,24.43
2019-04-05T03:36:01.063Z,25.07
2019-04-05T03:38:28.229Z,24.83
2019-04-05T03:40:55.781Z,23.90
2019-04-05T03:43:22.950Z,26.23
2019-04-05T03:45:50.234Z,24.63
2019-04-05T03:48:17.806Z,25.10
2019-04-05T03:50:45.540Z,24.67
2019-04-05T03:53:13.073Z,24.20
2019-04-05T03:55:40.328Z,22.20
2019-04-05T03:58:07.457Z,23.47
2019-04-05T04:00:34.762Z,24.10
2019-04-05T04:03:02.129Z,23.33
2019-04-05T04:05:29.219Z,23.53
2019-04-05T04:07:56.191Z,23.33
2019-04-05T04:10:25.654Z,23.00
2019-04-05T04:12:52.758Z,22.63
2019-04-05T04:15:19.935Z,23.07
2019-04-05T04:17:47.332Z,25.50
2019-04-05T04:20:31.758Z,21.13
2019-04-05T04:22:58.881Z,27.10
2019-04-05T04:25:27.231Z,24.13
2019-04-05T04:27:54.659Z,26.73
2019-04-05T04:30:22.408Z,24.07
2019-04-05T04:32:49.522Z,22.17
2019-04-05T04:35:16.773Z,28.50
2019-04-05T04:37:44.282Z,25.63
2019-04-05T04:40:11.353Z,27.90
2019-04-05T04:42:38.607Z,25.67
2019-04-05T04:45:12.092Z,24.87
2019-04-05T04:47:35.116Z,24.93
2019-04-05T04:50:02.813Z,25.83
2019-04-05T04:52:31.578Z,26.50
2019-04-05T04:54:59.167Z,27.97
2019-04-05T04:57:26.540Z,28.70
2019-04-05T04:59:53.846Z,24.33
2019-04-05T05:02:21.237Z,24.77
2019-04-05T05:04:48.459Z,29.47
2019-04-05T05:07:15.946Z,29.77
2019-04-05T05:09:43.141Z,29.90
2019-04-05T05:12:11.005Z,31.00
2019-04-05T05:14:38.564Z,27.10
2019-04-05T05:17:05.945Z,29.30
2019-04-05T05:19:33.396Z,28.03
2019-04-05T05:22:00.482Z,27.40
2019-04-05T05:24:28.064Z,24.63
2019-04-05T05:26:55.581Z,24.67
2019-04-05T05:29:22.633Z,23.27
2019-04-05T05:31:49.728Z,25.10
2019-04-05T05:34:17.066Z,22.63
2019-04-05T05:36:44.126Z,24.03
2019-04-05T05:39:11.189Z,23.37
2019-04-05T05:41:39.671Z,22.93
2019-04-05T05:44:06.955Z,22.43
2019-04-05T05:46:34.210Z,22.83
2019-04-05T05:49:01.274Z,22.20
2019-04-05T05:51:41.119Z,22.27
2019-04-05T05:54:08.122Z,22.17
2019-04-05T05:56:36.215Z,24.07
2019-04-05T05:59:03.579Z,22.10
2019-04-05T06:01:31.209Z,23.40
2019-04-05T06:03:58.149Z,20.60
2019-04-05T06:06:25.194Z,22.53
2019-04-05T06:08:52.142Z,24.93
2019-04-05T06:11:19.382Z,24.13
2019-04-05T06:13:46.337Z,23.10
2019-04-05T06:16:13.270Z,21.87
2019-04-05T06:18:40.244Z,22.73
2019-04-05T06:21:07.166Z,24.83
2019-04-05T06:23:34.405Z,27.20
2019-04-05T06:26:02.058Z,26.23
2019-04-05T06:28:30.568Z,25.50
2019-04-05T06:30:57.997Z,27.77
2019-04-05T06:33:31.419Z,29.27
2019-04-05T06:35:54.398Z,27.57
2019-04-05T06:38:21.433Z,25.87
2019-04-05T06:40:48.741Z,28.90
2019-04-05T06:43:16.028Z,26.93
2019-04-05T06:45:43.039Z,28.23
2019-04-05T06:48:19.038Z,27.87
2019-04-05T06:50:39.957Z,28.60
2019-04-05T06:53:07.458Z,27.83
2019-04-05T06:55:34.939Z,28.77
2019-04-05T06:58:02.366Z,32.03
2019-04-05T07:00:29.891Z,29.20
2019-04-05T07:02:58.035Z,30.03
2019-04-05T07:05:25.225Z,27.37
2019-04-05T07:07:54.071Z,26.80
2019-04-05T07:10:21.184Z,26.10
2019-04-05T07:12:48.230Z,26.73
2019-04-05T07:15:15.250Z,25.07
2019-04-05T07:17:42.290Z,24.50
2019-04-05T07:20:09.636Z,27.90
2019-04-05T07:22:39.327Z,23.53
2019-04-05T07:25:05.749Z,25.20
2019-04-05T07:27:32.657Z,25.67
2019-04-05T07:29:59.499Z,24.33
2019-04-05T07:32:26.611Z,25.03
2019-04-05T07:34:53.720Z,24.53
2019-04-05T07:37:20.852Z,24.07
2019-04-05T07:39:47.722Z,23.27
2019-04-05T07:42:14.607Z,23.87
2019-04-05T07:44:41.467Z,24.23
2019-04-05T07:47:08.370Z,25.00
2019-04-05T07:49:35.587Z,21.80
2019-04-05T07:52:02.475Z,23.80
2019-04-05T07:54:29.658Z,22.77
2019-04-05T07:56:56.568Z,22.80
2019-04-05T07:59:23.559Z,27.33
2019-04-05T08:01:50.818Z,22.67
2019-04-05T08:04:18.065Z,25.47
2019-04-05T08:06:46.961Z,21.70
2019-04-05T08:09:15.297Z,20.03
2019-04-05T08:11:44.084Z,21.57
2019-04-05T08:14:12.448Z,23.00
2019-04-05T08:16:39.657Z,20.87
2019-04-05T08:19:06.988Z,20.23
2019-04-05T08:21:33.856Z,22.03
2019-04-05T08:24:00.720Z,18.40
2019-04-05T08:26:27.721Z,20.93
2019-04-05T08:28:54.656Z,20.80
2019-04-05T08:31:21.532Z,21.67
2019-04-05T08:33:48.564Z,21.07
2019-04-05T08:36:15.696Z,21.63
2019-04-05T08:38:42.860Z,23.07
2019-04-05T08:41:10.136Z,20.20
2019-04-05T08:43:37.242Z,18.70
2019-04-05T08:46:04.537Z,19.07
2019-04-05T08:48:31.777Z,17.97
2019-04-05T08:50:58.928Z,18.27
2019-04-05T08:53:25.807Z,19.53
2019-04-05T08:55:52.661Z,18.83
2019-04-05T08:58:32.580Z,17.60
2019-04-05T09:00:48.498Z,17.50
2019-04-05T09:03:15.382Z,16.37
2019-04-05T09:05:42.262Z,18.60
2019-04-05T09:08:09.503Z,17.40
2019-04-05T09:10:36.508Z,16.97
2019-04-05T09:13:03.703Z,16.80
2019-04-05T09:15:30.563Z,21.17
2019-04-05T09:17:57.731Z,18.70
2019-04-05T09:20:24.926Z,16.30
2019-04-05T09:22:51.864Z,15.87
2019-04-05T09:25:19.927Z,18.43
2019-04-05T09:27:47.176Z,17.63
2019-04-05T09:30:16.151Z,16.00
2019-04-05T09:32:43.108Z,16.87
2019-04-05T09:35:10.288Z,21.00
2019-04-05T09:37:37.143Z,18.63
2019-04-05T09:40:04.859Z,18.93
2019-04-05T09:42:31.984Z,16.73
2019-04-05T09:44:58.864Z,20.37
2019-04-05T09:47:26.028Z,18.27
2019-04-05T09:49:52.893Z,19.97
2019-04-05T09:52:19.912Z,17.07
2019-04-05T09:54:46.763Z,18.00
2019-04-05T09:57:13.755Z,19.00
2019-04-05T09:59:40.608Z,16.73
2019-04-05T10:02:07.768Z,16.73
2019-04-05T10:04:34.635Z,15.80
2019-04-05T10:07:01.592Z,16.40
2019-04-05T10:09:28.568Z,15.97
2019-04-05T10:11:55.566Z,15.70
2019-04-05T10:14:22.540Z,15.80
2019-04-05T10:16:49.390Z,18.93
2019-04-05T10:19:16.270Z,14.60
2019-04-05T10:21:43.235Z,15.70
2019-04-05T10:24:10.083Z,16.13
2019-04-05T10:26:37.109Z,17.67
2019-04-05T10:29:04.183Z,17.93
2019-04-05T10:31:32.402Z,17.30
2019-04-05T10:33:59.314Z,17.10
2019-04-05T10:36:26.195Z,18.67
2019-04-05T10:38:53.137Z,18.20
2019-04-05T10:41:22.886Z,20.20
2019-04-05T10:43:48.879Z,18.57
2019-04-05T10:46:15.855Z,19.83
2019-04-05T10:48:43.424Z,22.27
2019-04-05T10:51:10.680Z,17.93
2019-04-05T10:53:37.547Z,18.47
2019-04-05T10:56:04.419Z,20.93
2019-04-05T10:58:31.774Z,19.17
2019-04-05T11:00:58.800Z,18.90
2019-04-05T11:03:25.804Z,19.63
2019-04-05T11:05:52.808Z,19.67
2019-04-05T11:08:20.012Z,23.87
2019-04-05T11:10:48.185Z,17.70
2019-04-05T11:13:15.595Z,19.20
2019-04-05T11:15:42.452Z,17.43
2019-04-05T11:18:09.481Z,22.40
2019-04-05T11:20:36.660Z,20.07
2019-04-05T11:23:03.632Z,21.17
2019-04-05T11:25:30.603Z,20.70
2019-04-05T11:27:58.595Z,21.30
2019-04-05T11:30:40.501Z,20.13
2019-04-05T11:33:08.013Z,23.37
2019-04-05T11:35:35.814Z,21.10
2019-04-05T11:38:03.104Z,23.27
2019-04-05T11:40:30.416Z,23.63
2019-04-05T11:42:59.446Z,20.73
2019-04-05T11:45:26.519Z,21.40
2019-04-05T11:47:55.660Z,22.30
2019-04-05T11:50:34.378Z,23.23
2019-04-05T11:52:53.448Z,22.03
2019-04-05T11:55:20.431Z,24.53
2019-04-05T11:57:47.292Z,22.53
2019-04-05T12:00:19.484Z,22.63
2019-04-05T12:02:49.775Z,28.00
2019-04-05T12:05:17.319Z,25.53
2019-04-05T12:07:44.675Z,24.77
2019-04-05T12:10:12.712Z,21.20
2019-04-05T12:12:39.576Z,23.93
2019-04-05T12:15:07.048Z,22.83
2019-04-05T12:17:35.307Z,21.60
2019-04-05T12:20:05.052Z,23.83
2019-04-05T12:22:34.542Z,21.03
2019-04-05T12:25:02.849Z,19.47
2019-04-05T12:27:30.096Z,24.80
2019-04-05T12:29:56.996Z,23.47
2019-04-05T12:32:33.582Z,19.50
2019-04-05T12:34:56.217Z,18.67
2019-04-05T12:37:23.560Z,20.37
2019-04-05T12:39:50.778Z,21.60
2019-04-05T12:42:30.369Z,22.03
2019-04-05T12:44:57.425Z,21.37
2019-04-05T12:47:24.445Z,21.00
2019-04-05T12:49:51.340Z,18.73
2019-04-05T12:52:22.862Z,21.77
2019-04-05T12:54:50.670Z,23.50
2019-04-05T12:57:16.141Z,19.73
2019-04-05T12:59:42.979Z,21.30
2019-04-05T13:02:10.164Z,23.97
2019-04-05T13:04:37.027Z,20.47
2019-04-05T13:07:04.302Z,21.10
2019-04-05T13:09:31.164Z,20.27
2019-04-05T13:11:58.557Z,19.20
2019-04-05T13:14:26.597Z,22.07
2019-04-05T13:16:54.245Z,18.30
2019-04-05T13:19:22.584Z,20.63
2019-04-05T13:21:49.677Z,19.50
2019-04-05T13:24:16.670Z,21.60
2019-04-05T13:26:43.765Z,18.40
2019-04-05T13:29:10.629Z,20.90
2019-04-05T13:31:37.506Z,21.67
2019-04-05T13:34:05.987Z,18.53
2019-04-05T13:36:33.600Z,20.47
2019-04-05T13:39:00.775Z,20.17
2019-04-05T13:41:31.381Z,21.60
2019-04-05T13:43:56.423Z,19.03
2019-04-05T13:46:25.992Z,18.57
2019-04-05T13:48:52.666Z,17.73
2019-04-05T13:51:27.793Z,16.53
2019-04-05T13:53:48.603Z,16.17
2019-04-05T13:56:15.457Z,19.83
2019-04-05T13:58:54.898Z,16.60
2019-04-05T14:01:22.280Z,19.83
2019-04-05T14:03:50.273Z,15.83
2019-04-05T14:06:32.160Z,17.67
2019-04-05T14:08:59.289Z,17.73
2019-04-05T14:11:27.408Z,17.27
2019-04-05T14:13:55.563Z,18.50
2019-04-05T14:16:22.485Z,18.40
2019-04-05T14:18:49.751Z,18.63
2019-04-05T14:21:20.654Z,19.37
2019-04-05T14:23:45.789Z,18.07
2019-04-05T14:26:12.781Z,20.30
2019-04-05T14:28:40.112Z,17.17
2019-04-05T14:31:07.176Z,18.53
2019-04-05T14:33:34.059Z,18.60
2019-04-05T14:36:00.916Z,17.53
2019-04-05T14:38:31.047Z,19.33
2019-04-05T14:40:57.080Z,19.53
2019-04-05T14:43:23.936Z,21.03
2019-04-05T14:45:51.269Z,18.20
2019-04-05T14:48:18.286Z,20.37
2019-04-05T14:50:45.370Z,27.53
2019-04-05T14:53:12.241Z,23.33
2019-04-05T14:55:39.312Z,23.87
2019-04-05T14:58:06.362Z,25.07
2019-04-05T15:00:34.089Z,22.50
2019-04-05T15:03:01.354Z,19.20
2019-04-05T15:05:28.361Z,21.60
2019-04-05T15:07:55.430Z,21.37
2019-04-05T15:10:24.835Z,19.80
2019-04-05T15:12:51.174Z,22.60
2019-04-05T15:15:19.537Z,18.93
2019-04-05T15:17:48.245Z,23.30
2019-04-05T15:20:15.829Z,20.27
2019-04-05T15:22:42.745Z,24.57
2019-04-05T15:25:10.077Z,23.17
2019-04-05T15:27:37.631Z,21.30
2019-04-05T15:30:05.529Z,20.53
2019-04-05T15:32:34.113Z,23.77
2019-04-05T15:35:01.777Z,26.27
2019-04-05T15:37:31.617Z,24.57
2019-04-05T15:39:58.643Z,23.70
2019-04-05T15:42:26.465Z,24.00
2019-04-05T15:44:54.522Z,28.17
2019-04-05T15:47:23.266Z,25.27
2019-04-05T15:50:10.026Z,24.43
2019-04-05T15:52:37.139Z,22.70
2019-04-05T15:55:05.277Z,25.70
2019-04-05T15:57:34.187Z,22.53
2019-04-05T16:00:04.669Z,25.43
2019-04-05T16:02:33.580Z,25.63
2019-04-05T16:05:01.140Z,24.03
2019-04-05T16:07:28.286Z,26.07
2019-04-05T16:09:55.320Z,22.90
2019-04-05T16:12:22.303Z,24.20
2019-04-05T16:14:49.365Z,25.23
2019-04-05T16:17:16.388Z,24.57
2019-04-05T16:19:43.709Z,27.47
2019-04-05T16:22:10.706Z,29.17
2019-04-05T16:24:37.690Z,25.63
2019-04-05T16:27:04.961Z,23.53
2019-04-05T16:29:32.130Z,25.67
2019-04-05T16:31:59.414Z,23.67
2019-04-05T16:34:27.542Z,28.20
2019-04-05T16:36:54.437Z,25.63
2019-04-05T16:39:22.546Z,26.47
2019-04-05T16:41:50.182Z,28.60
2019-04-05T16:44:17.341Z,24.67
2019-04-05T16:46:44.326Z,27.77
2019-04-05T16:49:11.307Z,29.17
2019-04-05T16:51:38.257Z,23.27
2019-04-05T16:54:05.472Z,29.00
2019-04-05T16:56:32.913Z,29.20
2019-04-05T16:58:59.913Z,30.00
2019-04-05T17:01:27.805Z,30.33
2019-04-05T17:03:55.053Z,27.23
2019-04-05T17:06:22.106Z,30.13
2019-04-05T17:08:49.237Z,61.77
2019-04-05T17:11:16.165Z,33.37
2019-04-05T17:13:43.047Z,29.90
2019-04-05T17:16:10.089Z,27.80
2019-04-05T17:18:37.143Z,28.13
2019-04-05T17:21:04.650Z,26.60
2019-04-05T17:23:33.262Z,28.10
2019-04-05T17:26:00.750Z,30.20
2019-04-05T17:28:27.973Z,29.33
2019-04-05T17:30:54.972Z,32.67
2019-04-05T17:33:21.940Z,34.70
2019-04-05T17:35:49.146Z,30.30
2019-04-05T17:38:16.182Z,33.90
2019-04-05T17:40:44.199Z,31.53
2019-04-05T17:43:11.090Z,30.20
2019-04-05T17:45:37.988Z,29.83
2019-04-05T17:48:05.030Z,28.70
2019-04-05T17:50:33.340Z,27.17
2019-04-05T17:53:11.183Z,27.63
2019-04-05T17:55:30.744Z,29.27
2019-04-05T17:57:58.798Z,30.57
2019-04-05T18:00:26.965Z,28.83
2019-04-05T18:02:54.064Z,29.47
2019-04-05T18:05:20.947Z,33.10
2019-04-05T18:07:48.386Z,30.63
2019-04-05T18:10:15.566Z,28.70
2019-04-05T18:12:42.602Z,32.20
2019-04-05T18:15:09.673Z,28.60
2019-04-05T18:17:36.647Z,32.77
2019-04-05T18:20:04.153Z,32.57
2019-04-05T18:22:31.237Z,30.60
2019-04-05T18:24:58.486Z,32.37
2019-04-05T18:27:25.419Z,33.53
2019-04-05T18:29:52.577Z,34.87
2019-04-05T18:32:19.487Z,34.03
2019-04-05T18:34:46.498Z,32.13
2019-04-05T18:37:15.486Z,29.83
2019-04-05T18:39:42.772Z,36.67
2019-04-05T18:42:09.651Z,32.63
2019-04-05T18:44:36.561Z,35.23
2019-04-05T18:47:03.624Z,33.57
2019-04-05T18:49:30.717Z,39.27
2019-04-05T18:51:57.954Z,35.17
2019-04-05T18:54:24.905Z,36.23
2019-04-05T18:56:51.774Z,33.30
2019-04-05T18:59:18.701Z,34.93
2019-04-05T19:01:45.750Z,33.53
2019-04-05T19:04:12.832Z,33.17
2019-04-05T19:06:40.223Z,34.27
2019-04-05T19:09:07.681Z,33.27
2019-04-05T19:11:35.302Z,37.07
2019-04-05T19:14:02.402Z,39.57
2019-04-05T19:16:29.335Z,37.70
2019-04-05T19:18:56.441Z,44.03
2019-04-05T19:21:23.351Z,41.37
2019-04-05T19:23:51.334Z,40.77
2019-04-05T19:26:18.442Z,41.73
2019-04-05T19:28:45.284Z,40.53
2019-04-05T19:48:36.241Z,39.87
2019-04-05T19:51:03.626Z,37.90
2019-04-05T19:53:30.600Z,37.87
2019-04-05T19:55:58.721Z,35.73
2019-04-05T19:58:39.154Z,38.20
2019-04-05T20:01:06.234Z,40.40
2019-04-05T20:03:33.305Z,38.43
2019-04-05T20:06:00.329Z,35.10
2019-04-05T20:08:28.421Z,36.50
2019-04-05T20:10:55.543Z,37.23
2019-04-05T20:13:22.750Z,37.63
2019-04-05T20:15:49.769Z,40.57
2019-04-05T20:18:16.784Z,34.53
2019-04-05T20:20:43.785Z,38.37
2019-04-05T20:23:10.765Z,33.70
2019-04-05T20:25:37.899Z,34.33
2019-04-05T20:28:04.802Z,32.20
2019-04-05T20:30:32.247Z,30.67
2019-04-05T20:32:59.402Z,31.77
2019-04-05T20:35:26.318Z,33.20
2019-04-05T20:37:53.362Z,40.30
2019-04-05T20:40:20.334Z,34.73
2019-04-05T20:42:47.713Z,33.10
2019-04-05T20:45:15.109Z,35.37
2019-04-05T20:47:41.952Z,31.43
2019-04-05T20:50:09.351Z,32.60
2019-04-05T20:52:36.229Z,34.07
2019-04-05T20:55:04.202Z,27.77
2019-04-05T20:57:31.320Z,26.50
2019-04-05T20:59:58.254Z,31.53
2019-04-05T21:02:25.153Z,30.73
2019-04-05T21:04:52.023Z,30.60
2019-04-05T21:07:18.985Z,30.97
2019-04-05T21:09:46.357Z,33.87
2019-04-05T21:12:13.423Z,34.10
2019-04-05T21:14:40.621Z,33.20
2019-04-05T21:17:07.633Z,30.90
2019-04-05T21:19:34.586Z,34.10
2019-04-05T21:22:01.537Z,35.43
2019-04-05T21:24:36.058Z,32.80
2019-04-05T21:26:57.337Z,32.20
2019-04-05T21:29:24.678Z,31.73
2019-04-05T21:31:51.624Z,29.37
2019-04-05T21:34:18.569Z,29.33
2019-04-05T21:36:45.546Z,33.50
2019-04-05T21:39:12.606Z,33.70
2019-04-05T21:41:39.554Z,37.13
2019-04-05T21:44:06.711Z,32.80
2019-04-05T21:46:33.722Z,32.90
2019-04-05T21:49:01.794Z,32.27
2019-04-05T21:51:28.694Z,34.40
2019-04-05T21:53:55.650Z,35.13
2019-04-05T21:56:23.568Z,34.60
2019-04-05T21:58:50.518Z,33.20
2019-04-05T22:01:18.467Z,34.60
2019-04-05T22:03:47.454Z,31.57
2019-04-05T22:06:14.471Z,33.57
2019-04-05T22:08:41.738Z,33.10
2019-04-05T22:11:08.665Z,32.63
2019-04-05T22:13:35.558Z,35.13
2019-04-05T22:16:02.532Z,34.73
2019-04-05T22:18:29.514Z,33.23
2019-04-05T22:20:56.423Z,30.67
2019-04-05T22:23:23.307Z,35.87
2019-04-05T22:26:03.758Z,32.87
2019-04-05T22:28:30.643Z,37.97
2019-04-05T22:30:57.867Z,33.87
2019-04-05T22:33:24.766Z,35.30
2019-04-05T22:35:51.754Z,35.20
2019-04-05T22:38:18.727Z,34.67
2019-04-05T22:40:46.289Z,34.43
2019-04-05T22:43:13.184Z,36.63
2019-04-05T22:45:40.186Z,38.27
2019-04-05T22:48:07.210Z,33.90
2019-04-05T22:50:34.084Z,31.80
2019-04-05T22:53:00.942Z,33.57
2019-04-05T22:55:28.073Z,32.67
2019-04-05T22:57:55.058Z,31.83
2019-04-05T23:00:22.173Z,34.20
2019-04-05T23:02:50.961Z,32.53
2019-04-05T23:05:18.006Z,35.00
2019-04-05T23:07:44.885Z,35.73
2019-04-05T23:10:12.644Z,32.50
2019-04-05T23:12:39.744Z,33.27
2019-04-05T23:15:07.404Z,33.73
2019-04-05T23:17:34.375Z,34.40
2019-04-05T23:20:01.791Z,34.77
2019-04-05T23:22:28.790Z,39.93
2019-04-05T23:24:55.701Z,40.07
2019-04-05T23:27:22.691Z,39.63
2019-04-05T23:29:50.653Z,35.40
2019-04-05T23:32:17.567Z,35.50
2019-04-05T23:34:44.431Z,34.43
2019-04-05T23:37:11.537Z,34.53
2019-04-05T23:39:38.573Z,34.40
2019-04-05T23:42:05.665Z,35.43
2019-04-05T23:44:32.553Z,37.60
2019-04-05T23:46:59.941Z,37.00
2019-04-05T23:49:27.280Z,41.33
2019-04-05T23:51:54.263Z,46.10
2019-04-05T23:54:21.783Z,53.93
2019-04-05T23:56:50.086Z,38.07
2019-04-05T23:59:17.026Z,55.07
